Time;durP1;ratioP1;P1;durP2;ratioP2;P2;SDS_P1;SDS_P2;PMS_P1;PMS_P2;Temp;Humidity;BMP_temperature;BMP_pressure;BME280_temperature;BME280_humidity;BME280_pressure;Samples;Min_cycle;Max_cycle;Signal;HPM_P1;HPM_P2
2024/03/06 00:01:42;;;;;;;6.05;4.65;;;8.30;88.10;;;;;;5054481;28;20033;-63
2024/03/06 00:04:08;;;;;;;5.82;4.95;;;8.30;88.30;;;;;;5058586;28;20488;-62
2024/03/06 00:06:33;;;;;;;6.55;5.28;;;8.30;88.40;;;;;;5049735;28;20044;-62
2024/03/06 00:09:00;;;;;;;6.93;5.30;;;8.30;88.40;;;;;;5055537;28;20036;-64
2024/03/06 00:11:26;;;;;;;6.53;5.40;;;8.30;88.40;;;;;;5057666;28;20093;-63
2024/03/06 00:13:51;;;;;;;7.50;5.30;;;8.20;88.30;;;;;;5059930;28;20115;-63
2024/03/06 00:16:17;;;;;;;7.63;5.65;;;8.20;88.50;;;;;;5060093;28;20117;-62
2024/03/06 00:18:42;;;;;;;6.55;5.13;;;8.20;88.60;;;;;;5057028;28;20033;-63
2024/03/06 00:21:09;;;;;;;7.78;5.50;;;8.20;88.80;;;;;;5055767;28;20342;-61
2024/03/06 00:23:37;;;;;;;6.72;5.38;;;8.20;89.00;;;;;;5051637;28;20037;-63
2024/03/06 00:26:02;;;;;;;6.85;5.00;;;8.10;89.00;;;;;;5054921;28;20040;-63
2024/03/06 00:28:28;;;;;;;7.93;5.72;;;8.20;89.20;;;;;;5062947;28;20032;-63
2024/03/06 00:30:53;;;;;;;6.70;5.35;;;8.10;89.30;;;;;;5063058;28;20051;-63
2024/03/06 00:33:19;;;;;;;6.72;5.40;;;8.10;89.30;;;;;;5054978;28;20055;-63
2024/03/06 00:35:45;;;;;;;6.63;5.40;;;8.10;89.30;;;;;;5059815;28;20092;-61
2024/03/06 00:38:10;;;;;;;6.45;5.07;;;8.20;89.30;;;;;;5060291;28;20048;-63
2024/03/06 00:40:36;;;;;;;6.15;5.28;;;8.10;89.30;;;;;;5058170;28;20136;-63
2024/03/06 00:43:02;;;;;;;6.07;5.10;;;8.20;89.40;;;;;;5062105;28;20033;-63
2024/03/06 00:45:27;;;;;;;6.32;5.25;;;8.10;89.40;;;;;;5056860;28;20029;-64
2024/03/06 00:47:53;;;;;;;8.02;5.50;;;8.10;89.40;;;;;;5066192;28;20453;-62
2024/03/06 00:50:21;;;;;;;6.28;5.53;;;8.10;89.50;;;;;;5058866;28;20040;-63
2024/03/06 00:52:46;;;;;;;6.88;5.00;;;8.10;89.50;;;;;;5056588;28;20400;-63
2024/03/06 00:55:12;;;;;;;6.13;5.32;;;8.10;89.50;;;;;;5061737;28;20179;-63
2024/03/06 00:57:37;;;;;;;6.68;5.60;;;8.10;89.50;;;;;;5060197;28;20137;-63
2024/03/06 01:00:13;;;;;;;6.72;5.32;;;8.10;89.50;;;;;;5064211;28;20029;-63
2024/03/06 01:02:39;;;;;;;7.18;5.45;;;8.10;89.40;;;;;;5053159;28;20038;-64
2024/03/06 01:05:05;;;;;;;6.30;5.70;;;8.10;89.30;;;;;;5052969;28;20162;-63
2024/03/06 01:07:31;;;;;;;5.53;5.00;;;8.10;89.20;;;;;;5058709;28;20040;-64
2024/03/06 01:09:57;;;;;;;5.95;5.35;;;8.10;89.30;;;;;;5060195;28;20033;-63
2024/03/06 01:12:23;;;;;;;6.22;5.63;;;8.00;89.20;;;;;;5060720;28;20052;-63
2024/03/06 01:14:49;;;;;;;6.53;5.22;;;8.00;89.20;;;;;;5055945;28;20041;-63
2024/03/06 01:17:14;;;;;;;8.82;5.70;;;8.00;89.20;;;;;;5056204;28;20174;-63
2024/03/06 01:19:40;;;;;;;5.97;5.32;;;8.00;89.30;;;;;;5060232;28;20532;-63
2024/03/06 01:22:06;;;;;;;6.45;5.40;;;8.00;89.30;;;;;;5059574;28;20036;-63
2024/03/06 01:24:32;;;;;;;7.60;5.47;;;8.00;89.40;;;;;;5058842;28;20044;-63
2024/03/06 01:26:59;;;;;;;6.40;5.80;;;8.00;89.50;;;;;;5055650;28;20465;-63
2024/03/06 01:29:24;;;;;;;7.75;5.78;;;7.90;89.40;;;;;;5051928;28;20159;-63
2024/03/06 01:31:50;;;;;;;6.50;5.43;;;7.90;89.70;;;;;;5055840;28;20128;-62
2024/03/06 01:34:15;;;;;;;6.32;5.60;;;7.90;89.50;;;;;;5048584;28;20561;-61
2024/03/06 01:36:41;;;;;;;7.60;5.63;;;7.90;89.50;;;;;;5056793;28;20036;-62
2024/03/06 01:39:07;;;;;;;5.93;5.32;;;7.90;89.50;;;;;;5063741;28;20084;-64
2024/03/06 01:41:32;;;;;;;7.13;5.70;;;7.90;89.60;;;;;;5061785;28;20106;-63
2024/03/06 01:43:58;;;;;;;6.53;5.55;;;7.90;89.70;;;;;;5061816;28;20032;-63
2024/03/06 01:46:24;;;;;;;8.18;5.90;;;7.90;89.60;;;;;;5059781;28;20036;-63
2024/03/06 01:48:50;;;;;;;6.93;5.70;;;7.90;89.60;;;;;;5057363;28;20033;-62
2024/03/06 01:51:16;;;;;;;7.95;5.60;;;7.90;89.70;;;;;;5065350;28;20032;-63
2024/03/06 01:53:42;;;;;;;8.32;5.75;;;7.90;89.70;;;;;;5056062;28;20033;-63
2024/03/06 01:56:11;;;;;;;7.38;5.80;;;7.90;89.70;;;;;;5064244;28;20025;-64
2024/03/06 01:58:38;;;;;;;7.68;5.53;;;7.90;89.70;;;;;;5056919;28;20423;-63
2024/03/06 02:01:04;;;;;;;8.18;5.75;;;7.90;89.60;;;;;;5051898;28;20047;-62
2024/03/06 02:03:32;;;;;;;7.20;5.55;;;7.90;89.60;;;;;;5060456;28;20029;-63
2024/03/06 02:05:58;;;;;;;8.85;5.72;;;7.90;89.70;;;;;;5056847;28;20102;-63
2024/03/06 02:08:24;;;;;;;7.28;5.57;;;7.90;89.80;;;;;;5063093;28;20036;-62
2024/03/06 02:10:49;;;;;;;7.25;5.60;;;7.90;89.90;;;;;;5062727;28;20033;-63
2024/03/06 02:13:15;;;;;;;6.90;6.07;;;7.90;89.70;;;;;;5057758;28;20029;-63
2024/03/06 02:15:41;;;;;;;6.53;5.88;;;7.90;89.60;;;;;;5059962;28;20056;-63
2024/03/06 02:18:08;;;;;;;7.68;6.10;;;7.80;89.60;;;;;;5059976;28;20043;-63
2024/03/06 02:20:34;;;;;;;7.35;6.18;;;7.80;89.70;;;;;;5057435;28;20033;-63
2024/03/06 02:23:00;;;;;;;8.57;6.13;;;7.80;89.80;;;;;;5056742;28;20035;-63
2024/03/06 02:25:25;;;;;;;8.23;6.03;;;7.80;89.70;;;;;;5060043;28;20496;-63
2024/03/06 02:27:51;;;;;;;9.57;6.28;;;7.70;89.50;;;;;;5057646;28;20331;-63
2024/03/06 02:30:20;;;;;;;7.65;6.10;;;7.70;89.50;;;;;;5055060;28;20071;-63
2024/03/06 02:32:46;;;;;;;9.73;6.32;;;7.70;89.60;;;;;;5059058;28;20033;-63
2024/03/06 02:35:13;;;;;;;8.38;6.97;;;7.70;89.50;;;;;;5058259;28;20045;-63
2024/03/06 02:37:40;;;;;;;10.20;6.78;;;7.70;89.70;;;;;;5059579;28;20048;-63
2024/03/06 02:40:07;;;;;;;11.20;7.15;;;7.70;89.70;;;;;;5067307;28;20032;-63
2024/03/06 02:42:32;;;;;;;10.50;6.63;;;7.70;89.90;;;;;;5059714;28;20595;-62
2024/03/06 02:44:58;;;;;;;8.73;7.05;;;7.70;89.90;;;;;;5056716;28;20063;-63
2024/03/06 02:47:24;;;;;;;10.02;7.30;;;7.70;89.90;;;;;;5057677;28;20561;-62
2024/03/06 02:49:49;;;;;;;8.73;7.00;;;7.70;89.90;;;;;;5060913;28;20037;-63
2024/03/06 02:52:15;;;;;;;10.35;7.90;;;7.70;89.90;;;;;;5061029;27;20083;-62
2024/03/06 02:54:42;;;;;;;10.40;7.43;;;7.70;90.00;;;;;;5053797;28;20512;-63
2024/03/06 02:57:07;;;;;;;10.40;7.88;;;7.70;90.00;;;;;;5056065;28;20046;-63
2024/03/06 02:59:33;;;;;;;8.73;7.43;;;7.70;90.00;;;;;;5050967;28;20040;-63
2024/03/06 03:02:00;;;;;;;9.48;7.45;;;7.70;90.00;;;;;;5052272;28;20029;-62
2024/03/06 03:04:26;;;;;;;10.15;7.78;;;7.70;90.10;;;;;;5049906;28;20031;-63
2024/03/06 03:06:52;;;;;;;9.75;8.00;;;7.80;90.10;;;;;;5050643;28;20083;-63
2024/03/06 03:09:17;;;;;;;9.32;7.97;;;7.80;90.10;;;;;;5050703;28;20479;-63
2024/03/06 03:11:44;;;;;;;9.45;7.97;;;7.80;90.00;;;;;;5055525;28;20040;-63
2024/03/06 03:14:09;;;;;;;9.35;7.82;;;7.80;90.00;;;;;;5051928;28;20047;-63
2024/03/06 03:16:35;;;;;;;9.27;7.60;;;7.80;90.00;;;;;;5052391;28;20029;-63
2024/03/06 03:19:01;;;;;;;8.73;7.22;;;7.80;90.00;;;;;;5051658;28;20071;-63
2024/03/06 03:21:27;;;;;;;10.25;7.25;;;7.80;89.90;;;;;;5054963;28;20048;-63
2024/03/06 03:23:52;;;;;;;8.32;7.15;;;7.80;89.90;;;;;;5050593;28;20036;-63
2024/03/06 03:26:18;;;;;;;8.23;7.22;;;7.70;89.90;;;;;;5054523;28;20131;-63
2024/03/06 03:28:44;;;;;;;10.15;7.78;;;7.70;90.00;;;;;;5048873;28;20036;-63
2024/03/06 03:31:10;;;;;;;9.05;7.90;;;7.70;90.00;;;;;;5055706;28;20162;-63
2024/03/06 03:33:39;;;;;;;10.00;7.55;;;7.70;90.00;;;;;;5051850;28;20127;-62
2024/03/06 03:36:08;;;;;;;9.30;7.47;;;7.60;90.10;;;;;;5053073;28;20436;-61
2024/03/06 03:38:38;;;;;;;10.65;8.20;;;7.60;90.10;;;;;;5052653;28;20040;-62
2024/03/06 03:41:12;;;;;;;9.52;7.60;;;7.60;90.20;;;;;;5053628;28;20033;-63
2024/03/06 03:43:39;;;;;;;9.23;7.73;;;7.60;90.20;;;;;;5054650;28;20041;-63
2024/03/06 03:46:06;;;;;;;10.48;7.90;;;7.50;90.20;;;;;;5049195;28;20516;-61
2024/03/06 03:48:35;;;;;;;12.75;8.10;;;7.60;90.30;;;;;;5051326;28;20500;-63
2024/03/06 03:51:02;;;;;;;9.02;8.02;;;7.60;90.30;;;;;;5052187;28;20041;-63
2024/03/06 03:53:28;;;;;;;10.20;8.40;;;7.50;90.20;;;;;;5052434;28;20032;-61
2024/03/06 03:55:53;;;;;;;8.90;7.82;;;7.50;90.20;;;;;;5066473;28;20032;-63
2024/03/06 03:58:19;;;;;;;14.30;7.90;;;7.50;90.20;;;;;;5051422;28;20040;-62
2024/03/06 04:00:45;;;;;;;8.60;7.22;;;7.50;90.30;;;;;;5054384;28;20033;-63
2024/03/06 04:03:10;;;;;;;9.50;7.80;;;7.50;90.30;;;;;;5057469;28;20049;-63
2024/03/06 04:05:36;;;;;;;8.65;7.75;;;7.50;90.30;;;;;;5047721;28;20076;-63
2024/03/06 04:08:02;;;;;;;11.25;8.18;;;7.50;90.30;;;;;;5050848;28;20045;-63
2024/03/06 04:10:27;;;;;;;9.90;7.68;;;7.50;90.40;;;;;;5050800;28;20087;-63
2024/03/06 04:12:54;;;;;;;10.05;8.05;;;7.50;90.40;;;;;;5054259;28;20044;-63
2024/03/06 04:15:20;;;;;;;9.98;8.32;;;7.40;90.40;;;;;;5055631;28;20511;-63
2024/03/06 04:17:45;;;;;;;8.52;7.53;;;7.40;90.40;;;;;;5054735;28;20029;-63
2024/03/06 04:20:11;;;;;;;9.52;7.78;;;7.40;90.40;;;;;;5055168;28;20039;-63
2024/03/06 04:22:38;;;;;;;8.77;7.85;;;7.40;90.40;;;;;;5053840;28;20025;-63
2024/03/06 04:25:04;;;;;;;10.50;7.80;;;7.40;90.50;;;;;;5054034;28;20029;-63
2024/03/06 04:27:30;;;;;;;9.27;7.90;;;7.40;90.60;;;;;;5056921;28;20488;-63
2024/03/06 04:29:56;;;;;;;9.30;7.95;;;7.40;90.50;;;;;;5053242;28;20051;-64
2024/03/06 04:32:21;;;;;;;9.75;7.93;;;7.40;90.90;;;;;;5056058;28;20037;-63
2024/03/06 04:34:47;;;;;;;8.88;7.85;;;7.30;90.60;;;;;;5055447;28;20183;-61
2024/03/06 04:37:13;;;;;;;10.40;7.57;;;7.30;90.60;;;;;;5056329;28;20036;-63
2024/03/06 04:39:39;;;;;;;9.15;7.72;;;7.40;90.60;;;;;;5052020;28;20128;-62
2024/03/06 04:42:06;;;;;;;11.55;8.18;;;7.30;90.60;;;;;;5066812;28;20188;-63
2024/03/06 04:44:34;;;;;;;9.82;7.70;;;7.30;90.60;;;;;;5054791;28;20032;-64
2024/03/06 04:46:59;;;;;;;9.45;7.70;;;7.30;90.60;;;;;;5053264;28;20165;-63
2024/03/06 04:49:25;;;;;;;12.20;7.72;;;7.30;90.60;;;;;;5050170;28;20520;-63
2024/03/06 04:51:50;;;;;;;9.35;7.70;;;7.30;90.60;;;;;;5052807;28;20041;-63
2024/03/06 04:54:16;;;;;;;10.70;7.97;;;7.30;90.70;;;;;;5053725;28;20228;-63
2024/03/06 04:56:41;;;;;;;8.93;7.60;;;7.30;90.70;;;;;;5053642;28;20454;-63
2024/03/06 04:59:07;;;;;;;9.18;7.70;;;7.30;90.70;;;;;;5057714;28;20037;-64
2024/03/06 05:01:33;;;;;;;10.35;7.22;;;7.20;90.60;;;;;;5055068;28;20048;-64
2024/03/06 05:03:58;;;;;;;10.10;7.45;;;7.30;90.70;;;;;;5054500;28;20115;-62
2024/03/06 05:06:24;;;;;;;10.30;8.00;;;7.30;90.70;;;;;;5051044;28;20046;-64
2024/03/06 05:08:50;;;;;;;9.43;7.50;;;7.30;90.70;;;;;;5061216;28;20056;-63
2024/03/06 05:11:15;;;;;;;10.70;7.18;;;7.20;90.60;;;;;;5064405;28;20120;-63
2024/03/06 05:13:41;;;;;;;10.05;7.32;;;7.10;90.60;;;;;;5058730;28;20416;-62
2024/03/06 05:16:09;;;;;;;8.48;7.57;;;7.20;90.60;;;;;;5064962;28;20032;-63
2024/03/06 05:18:35;;;;;;;8.80;7.80;;;7.20;90.60;;;;;;5061904;28;20089;-63
2024/03/06 05:21:00;;;;;;;10.23;7.50;;;7.20;90.60;;;;;;5067705;28;20033;-64
2024/03/06 05:23:26;;;;;;;10.25;7.45;;;7.20;90.60;;;;;;5063291;28;20407;-63
2024/03/06 05:25:52;;;;;;;9.15;7.57;;;7.10;90.60;;;;;;5057485;28;20508;-64
2024/03/06 05:28:17;;;;;;;8.88;7.50;;;7.20;90.70;;;;;;5056511;28;20535;-63
2024/03/06 05:30:43;;;;;;;10.10;7.72;;;7.20;90.70;;;;;;5053520;28;20236;-63
2024/03/06 05:33:09;;;;;;;11.40;8.32;;;7.20;90.80;;;;;;5062560;28;20035;-64
2024/03/06 05:35:34;;;;;;;11.13;8.73;;;7.20;90.80;;;;;;5057959;28;20106;-63
2024/03/06 05:38:00;;;;;;;10.57;8.20;;;7.20;90.80;;;;;;5063630;28;20392;-62
2024/03/06 05:40:26;;;;;;;9.57;7.70;;;7.20;90.70;;;;;;5067518;28;20037;-64
2024/03/06 05:42:51;;;;;;;8.77;7.88;;;7.10;90.60;;;;;;5059370;28;20037;-63
2024/03/06 05:45:17;;;;;;;8.18;7.18;;;7.10;90.70;;;;;;5060343;28;20031;-63
2024/03/06 05:47:42;;;;;;;10.38;8.15;;;7.10;90.70;;;;;;5066262;28;20043;-63
2024/03/06 05:50:10;;;;;;;8.20;7.28;;;7.10;90.70;;;;;;5066433;28;20527;-64
2024/03/06 05:52:36;;;;;;;9.27;8.30;;;7.10;90.70;;;;;;5071610;28;20146;-64
2024/03/06 05:55:02;;;;;;;8.30;7.45;;;7.10;90.80;;;;;;5067574;28;20571;-63
2024/03/06 05:57:27;;;;;;;9.60;8.02;;;7.10;90.80;;;;;;5060917;28;20033;-64
2024/03/06 05:59:53;;;;;;;9.40;7.53;;;7.10;90.80;;;;;;5064880;28;20089;-63
2024/03/06 06:02:22;;;;;;;8.55;7.68;;;7.10;90.90;;;;;;5057236;28;20103;-64
2024/03/06 06:04:47;;;;;;;9.68;7.70;;;7.10;90.90;;;;;;5064859;28;20040;-63
2024/03/06 06:07:13;;;;;;;9.93;8.52;;;7.10;90.80;;;;;;5063269;28;20033;-63
2024/03/06 06:09:39;;;;;;;8.73;7.80;;;7.10;90.90;;;;;;5060254;28;20400;-63
2024/03/06 06:12:04;;;;;;;9.45;7.80;;;7.10;90.80;;;;;;5065689;28;20488;-63
2024/03/06 06:14:30;;;;;;;10.13;7.97;;;7.10;90.90;;;;;;5060261;28;20037;-62
2024/03/06 06:16:58;;;;;;;9.65;7.82;;;7.10;90.80;;;;;;5067133;28;20036;-64
2024/03/06 06:19:24;;;;;;;9.48;7.95;;;7.10;90.90;;;;;;5069322;28;20456;-63
2024/03/06 06:21:54;;;;;;;10.23;7.65;;;7.10;90.90;;;;;;5057435;28;20116;-63
2024/03/06 06:24:19;;;;;;;9.10;7.85;;;7.10;90.90;;;;;;5058994;28;20044;-63
2024/03/06 06:26:45;;;;;;;9.30;7.50;;;7.10;90.90;;;;;;5058716;28;20029;-62
2024/03/06 06:29:10;;;;;;;9.60;7.72;;;7.10;90.90;;;;;;5060251;28;20107;-63
2024/03/06 06:31:36;;;;;;;10.20;7.90;;;7.10;91.00;;;;;;5062788;28;20037;-63
2024/03/06 06:34:01;;;;;;;8.55;7.65;;;7.10;91.00;;;;;;5057565;28;20535;-64
2024/03/06 06:36:27;;;;;;;10.25;8.23;;;7.10;91.00;;;;;;5062522;28;20036;-62
2024/03/06 06:38:53;;;;;;;9.23;7.88;;;7.10;91.00;;;;;;5058753;28;20093;-63
2024/03/06 06:41:19;;;;;;;9.70;8.13;;;7.10;91.00;;;;;;5062391;28;20033;-62
2024/03/06 06:43:45;;;;;;;9.85;7.68;;;7.10;91.00;;;;;;5068933;28;20029;-63
2024/03/06 06:46:11;;;;;;;9.25;7.68;;;7.10;91.00;;;;;;5056988;28;20033;-61
2024/03/06 06:48:36;;;;;;;8.32;7.38;;;7.10;91.40;;;;;;5059832;28;20036;-63
2024/03/06 06:51:03;;;;;;;8.93;8.02;;;7.10;91.00;;;;;;5060013;28;20115;-61
2024/03/06 06:53:29;;;;;;;8.77;7.55;;;7.10;91.00;;;;;;5056615;28;20038;-63
2024/03/06 06:55:55;;;;;;;8.57;7.63;;;7.10;91.10;;;;;;5066057;28;20097;-63
2024/03/06 06:58:21;;;;;;;10.13;8.00;;;7.20;91.10;;;;;;5059894;28;20500;-61
2024/03/06 07:00:46;;;;;;;9.02;7.43;;;7.20;91.10;;;;;;5061245;28;20471;-62
2024/03/06 07:03:12;;;;;;;9.45;7.38;;;7.20;91.10;;;;;;5059506;28;20097;-63
2024/03/06 07:05:38;;;;;;;8.40;7.45;;;7.20;91.10;;;;;;5061302;28;20123;-63
2024/03/06 07:08:04;;;;;;;9.02;7.72;;;7.20;91.00;;;;;;5070973;28;20499;-62
2024/03/06 07:10:30;;;;;;;10.20;7.85;;;7.30;91.10;;;;;;5055281;28;20040;-62
2024/03/06 07:12:57;;;;;;;10.13;7.78;;;7.30;91.00;;;;;;5056835;28;20132;-64
2024/03/06 07:15:22;;;;;;;10.55;8.50;;;7.30;91.00;;;;;;5061933;28;20107;-64
2024/03/06 07:17:48;;;;;;;10.32;7.80;;;7.30;90.90;;;;;;5059947;28;20029;-63
2024/03/06 07:20:14;;;;;;;8.90;7.10;;;7.30;90.90;;;;;;5065815;28;20111;-63
2024/03/06 07:22:40;;;;;;;7.93;7.13;;;7.30;90.90;;;;;;5059308;28;20029;-63
2024/03/06 07:25:05;;;;;;;9.20;6.93;;;7.30;90.90;;;;;;5069341;28;20024;-63
2024/03/06 07:27:31;;;;;;;9.02;7.10;;;7.40;90.90;;;;;;5067573;28;20105;-63
2024/03/06 07:29:57;;;;;;;8.95;8.02;;;7.40;91.00;;;;;;5064644;28;20115;-62
2024/03/06 07:32:22;;;;;;;8.52;7.63;;;7.40;90.90;;;;;;5070146;28;20029;-63
2024/03/06 07:34:48;;;;;;;9.05;7.90;;;7.40;90.90;;;;;;5063070;28;20036;-62
2024/03/06 07:37:14;;;;;;;8.35;6.90;;;7.40;91.20;;;;;;5068460;28;20044;-63
2024/03/06 07:39:40;;;;;;;8.93;7.93;;;7.40;90.80;;;;;;5066911;28;20075;-62
2024/03/06 07:42:06;;;;;;;8.02;7.05;;;7.40;90.80;;;;;;5059461;28;20060;-62
2024/03/06 07:44:31;;;;;;;8.18;6.80;;;7.40;90.80;;;;;;5052214;28;20104;-63
2024/03/06 07:46:57;;;;;;;7.00;6.25;;;7.40;90.80;;;;;;5057819;28;20051;-64
2024/03/06 07:49:22;;;;;;;7.65;6.90;;;7.40;90.70;;;;;;5057121;28;20048;-63
2024/03/06 07:51:48;;;;;;;7.05;6.35;;;7.40;90.60;;;;;;5070022;28;20051;-63
2024/03/06 07:54:14;;;;;;;7.03;6.30;;;7.40;90.60;;;;;;5059388;28;20403;-63
2024/03/06 07:56:40;;;;;;;6.25;5.65;;;7.40;90.70;;;;;;5067695;28;20033;-63
2024/03/06 07:59:05;;;;;;;6.03;5.43;;;7.30;90.70;;;;;;5067744;28;20067;-63
2024/03/06 08:01:32;;;;;;;5.75;5.20;;;7.30;90.60;;;;;;5064974;28;20039;-62
2024/03/06 08:03:58;;;;;;;5.40;4.90;;;7.20;90.60;;;;;;5064219;28;20130;-63
2024/03/06 08:06:24;;;;;;;5.88;5.35;;;7.20;90.60;;;;;;5060502;28;20514;-63
2024/03/06 08:08:51;;;;;;;5.30;4.88;;;7.20;90.60;;;;;;5065069;28;20112;-63
2024/03/06 08:11:17;;;;;;;5.38;4.88;;;7.20;90.60;;;;;;5063111;28;20432;-62
2024/03/06 08:13:43;;;;;;;6.55;4.90;;;7.10;90.60;;;;;;5061365;28;20059;-63
2024/03/06 08:16:09;;;;;;;5.60;5.07;;;7.10;90.60;;;;;;5066823;28;20117;-63
2024/03/06 08:18:36;;;;;;;4.95;4.45;;;7.10;90.60;;;;;;5060598;28;20033;-61
2024/03/06 08:21:05;;;;;;;5.65;4.63;;;7.00;90.60;;;;;;5069081;28;20036;-63
2024/03/06 08:23:30;;;;;;;5.22;4.72;;;7.00;90.50;;;;;;5061510;28;20033;-64
2024/03/06 08:25:56;;;;;;;5.15;4.65;;;7.00;90.50;;;;;;5062537;28;20078;-63
2024/03/06 08:28:22;;;;;;;4.75;4.30;;;7.00;90.60;;;;;;5068296;28;20508;-63
2024/03/06 08:30:47;;;;;;;4.70;4.30;;;6.90;90.70;;;;;;5062826;28;20052;-62
2024/03/06 08:33:13;;;;;;;5.68;4.43;;;6.90;90.80;;;;;;5069654;28;20500;-63
2024/03/06 08:35:39;;;;;;;4.10;3.70;;;6.90;90.90;;;;;;5067968;28;20024;-63
2024/03/06 08:38:06;;;;;;;4.05;3.70;;;6.90;90.90;;;;;;5061268;28;20535;-63
2024/03/06 08:40:32;;;;;;;4.30;3.90;;;6.80;90.90;;;;;;5068337;28;20059;-61
2024/03/06 08:42:57;;;;;;;5.47;4.32;;;6.80;91.00;;;;;;5065118;28;20787;-63
2024/03/06 08:45:23;;;;;;;4.90;4.40;;;6.80;90.90;;;;;;5065046;28;20029;-61
2024/03/06 08:47:49;;;;;;;6.60;5.18;;;6.80;91.00;;;;;;5069382;28;20023;-63
2024/03/06 08:50:15;;;;;;;5.55;5.05;;;6.80;91.00;;;;;;5063181;28;20653;-62
2024/03/06 08:52:41;;;;;;;7.13;5.95;;;6.80;91.00;;;;;;5069105;28;20120;-63
2024/03/06 08:55:07;;;;;;;7.10;6.40;;;6.80;91.10;;;;;;5066806;28;20036;-62
2024/03/06 08:57:33;;;;;;;12.25;10.75;;;6.80;91.10;;;;;;5067889;28;20047;-63
2024/03/06 08:59:59;;;;;;;9.23;8.20;;;6.80;91.10;;;;;;5063909;28;20431;-62
2024/03/06 09:02:25;;;;;;;12.20;11.00;;;6.80;91.10;;;;;;5057535;28;20044;-63
2024/03/06 09:04:52;;;;;;;11.40;10.27;;;6.80;91.10;;;;;;5061418;28;20151;-62
2024/03/06 09:07:18;;;;;;;9.15;8.30;;;6.80;91.10;;;;;;5071702;28;20047;-63
2024/03/06 09:09:44;;;;;;;6.80;6.20;;;6.80;91.10;;;;;;5057242;28;20044;-63
2024/03/06 09:12:10;;;;;;;4.82;4.32;;;6.80;91.20;;;;;;5059703;28;20032;-62
2024/03/06 09:14:39;;;;;;;4.95;4.50;;;6.80;91.20;;;;;;5067640;28;20024;-62
2024/03/06 09:17:05;;;;;;;4.40;4.00;;;6.80;91.30;;;;;;5061605;28;20044;-63
2024/03/06 09:19:32;;;;;;;4.43;4.03;;;6.80;91.20;;;;;;5056936;28;20420;-64
2024/03/06 09:21:58;;;;;;;3.95;3.60;;;6.80;91.20;;;;;;5061300;28;20061;-63
2024/03/06 09:24:25;;;;;;;4.55;3.67;;;6.80;91.20;;;;;;5060069;28;20041;-61
2024/03/06 09:26:50;;;;;;;3.67;3.38;;;6.80;91.20;;;;;;5059298;28;20036;-62
2024/03/06 09:29:16;;;;;;;4.18;3.78;;;6.80;91.20;;;;;;5065070;28;20055;-64
2024/03/06 09:31:43;;;;;;;4.10;3.47;;;6.80;91.20;;;;;;5065556;28;20033;-63
2024/03/06 09:34:15;;;;;;;4.05;3.47;;;6.90;91.20;;;;;;5059914;28;20500;-63
2024/03/06 09:36:45;;;;;;;4.13;3.28;;;6.80;91.20;;;;;;5052957;28;20526;-63
2024/03/06 09:39:20;;;;;;;3.85;3.50;;;6.80;91.20;;;;;;5065141;28;20033;-63
2024/03/06 09:41:50;;;;;;;4.03;3.42;;;6.80;91.30;;;;;;5063964;28;20025;-63
2024/03/06 09:44:20;;;;;;;4.07;3.42;;;6.80;91.20;;;;;;5057130;28;20063;-64
2024/03/06 09:46:46;;;;;;;3.97;3.67;;;6.90;91.20;;;;;;5055985;28;20116;-63
2024/03/06 09:49:15;;;;;;;3.50;3.20;;;6.80;91.20;;;;;;5059522;28;20041;-63
2024/03/06 09:51:49;;;;;;;3.65;3.35;;;6.90;91.30;;;;;;5060408;28;20040;-63
2024/03/06 09:54:16;;;;;;;3.45;3.15;;;6.90;91.30;;;;;;5062652;28;20039;-63
2024/03/06 09:56:45;;;;;;;3.75;3.08;;;6.90;91.30;;;;;;5063169;28;20496;-64
2024/03/06 09:59:11;;;;;;;3.28;2.97;;;6.90;91.20;;;;;;5057912;28;20077;-63
2024/03/06 10:01:55;;;;;;;3.30;3.00;;;6.90;91.20;;;;;;5061009;28;20368;-61
2024/03/06 10:04:25;;;;;;;3.35;3.05;;;6.90;91.20;;;;;;5061281;28;20056;-62
2024/03/06 10:06:57;;;;;;;3.30;3.00;;;6.90;91.10;;;;;;5057839;28;20041;-62
2024/03/06 10:09:23;;;;;;;3.38;3.08;;;6.90;91.10;;;;;;5062628;28;20407;-61
2024/03/06 10:11:49;;;;;;;3.33;3.03;;;6.90;91.10;;;;;;5064137;28;20033;-62
2024/03/06 10:14:15;;;;;;;3.70;3.30;;;6.90;91.10;;;;;;5059035;28;20040;-61
2024/03/06 10:16:58;;;;;;;5.40;4.28;;;6.90;91.10;;;;;;5067252;28;20051;-63
2024/03/06 10:19:30;;;;;;;4.70;4.15;;;6.90;91.20;;;;;;5064534;28;20119;-62
2024/03/06 10:21:58;;;;;;;5.40;4.32;;;6.90;91.20;;;;;;5060196;28;20039;-63
2024/03/06 10:24:28;;;;;;;4.30;3.90;;;6.90;91.20;;;;;;5055426;28;20049;-63
2024/03/06 10:26:59;;;;;;;3.88;3.10;;;6.90;91.20;;;;;;5064438;28;20453;-63
2024/03/06 10:29:27;;;;;;;4.25;3.47;;;6.90;91.20;;;;;;5057632;28;20128;-63
2024/03/06 10:31:56;;;;;;;3.75;3.20;;;6.90;91.20;;;;;;5070980;28;20075;-62
2024/03/06 10:34:24;;;;;;;4.88;4.22;;;6.90;91.20;;;;;;5054874;28;20148;-63
2024/03/06 10:37:00;;;;;;;5.25;4.07;;;6.90;91.20;;;;;;5060219;28;20063;-62
2024/03/06 10:39:27;;;;;;;16.27;7.63;;;7.00;91.40;;;;;;5064642;28;20532;-62
2024/03/06 10:41:54;;;;;;;16.30;7.38;;;7.00;91.30;;;;;;5063307;28;20060;-62
2024/03/06 10:44:22;;;;;;;6.22;5.03;;;7.00;91.70;;;;;;5065066;28;20501;-61
2024/03/06 10:46:57;;;;;;;7.38;5.60;;;7.00;91.40;;;;;;5053953;28;20040;-63
2024/03/06 10:49:24;;;;;;;6.95;5.22;;;7.00;91.50;;;;;;5056489;28;20447;-63
2024/03/06 10:51:51;;;;;;;13.25;8.13;;;7.00;91.50;;;;;;5063181;28;20404;-63
2024/03/06 10:54:16;;;;;;;10.50;6.75;;;7.10;91.50;;;;;;5059015;28;20720;-63
2024/03/06 10:56:42;;;;;;;22.58;10.23;;;7.10;91.50;;;;;;5061054;28;20029;-62
2024/03/06 10:59:12;;;;;;;11.38;6.50;;;7.10;91.50;;;;;;5059034;28;20552;-62
2024/03/06 11:01:39;;;;;;;9.82;5.93;;;7.10;91.50;;;;;;5059512;28;21528;-62
2024/03/06 11:04:06;;;;;;;5.30;4.00;;;7.20;91.50;;;;;;5064879;28;20086;-62
2024/03/06 11:06:33;;;;;;;6.75;4.95;;;7.20;91.50;;;;;;5059029;28;20045;-63
2024/03/06 11:08:59;;;;;;;4.97;4.00;;;7.20;91.50;;;;;;5063139;28;20051;-63
2024/03/06 11:11:25;;;;;;;4.47;3.95;;;7.20;91.50;;;;;;5062529;28;20033;-63
2024/03/06 11:13:57;;;;;;;4.30;3.70;;;7.30;91.50;;;;;;5060216;28;20033;-62
2024/03/06 11:16:33;;;;;;;5.38;4.15;;;7.30;91.60;;;;;;5060650;28;20075;-62
2024/03/06 11:19:08;;;;;;;4.70;3.63;;;7.40;91.60;;;;;;5059155;28;20036;-62
2024/03/06 11:21:35;;;;;;;4.38;3.97;;;7.40;91.60;;;;;;5057192;28;20075;-64
2024/03/06 11:24:20;;;;;;;4.47;4.03;;;7.40;91.40;;;;;;5062059;28;20063;-62
2024/03/06 11:26:46;;;;;;;;;;;7.40;91.50;;;;;;5052157;28;20665;-63
2024/03/06 11:29:11;;;;;;;3.90;3.10;;;7.50;91.70;;;;;;5056675;28;19924;-64
2024/03/06 11:31:37;;;;;;;3.47;3.13;;;7.50;91.30;;;;;;5054525;28;20033;-61
2024/03/06 11:34:04;;;;;;;3.88;3.15;;;7.50;91.70;;;;;;5062310;28;20025;-63
2024/03/06 11:36:30;;;;;;;3.35;3.00;;;7.60;91.30;;;;;;5061325;28;20094;-63
2024/03/06 11:39:00;;;;;;;3.88;3.25;;;7.60;91.30;;;;;;5058454;28;20120;-63
2024/03/06 11:41:30;;;;;;;3.90;3.50;;;7.60;91.40;;;;;;5049751;28;20036;-63
2024/03/06 11:43:56;;;;;;;4.28;3.70;;;7.60;91.40;;;;;;5062850;28;20036;-63
2024/03/06 11:46:39;;;;;;;3.88;3.10;;;7.60;91.40;;;;;;5053937;28;20800;-63
2024/03/06 11:49:20;;;;;;;3.90;3.20;;;7.70;91.30;;;;;;5057200;28;20032;-61
2024/03/06 11:51:47;;;;;;;3.58;3.05;;;7.70;91.20;;;;;;5064861;28;20050;-63
2024/03/06 11:54:13;;;;;;;3.30;3.00;;;7.70;91.10;;;;;;5058429;28;20036;-63
2024/03/06 11:56:46;;;;;;;3.25;2.95;;;7.70;91.20;;;;;;5054399;28;20128;-63
2024/03/06 11:59:12;;;;;;;3.35;2.90;;;7.80;91.20;;;;;;5056058;28;20036;-61
2024/03/06 12:01:38;;;;;;;2.83;2.63;;;7.80;91.10;;;;;;5053572;28;20044;-63
2024/03/06 12:04:04;;;;;;;2.78;2.58;;;7.80;91.10;;;;;;5063651;28;20037;-62
2024/03/06 12:06:32;;;;;;;2.70;2.50;;;7.80;91.10;;;;;;5056330;28;20090;-64
2024/03/06 12:08:58;;;;;;;2.88;2.50;;;7.80;91.10;;;;;;5053564;28;20148;-63
2024/03/06 12:11:25;;;;;;;2.33;2.13;;;7.90;91.20;;;;;;5057260;28;20028;-62
2024/03/06 12:13:51;;;;;;;2.55;2.30;;;7.80;91.00;;;;;;5056324;28;20029;-62
2024/03/06 12:16:18;;;;;;;3.22;2.83;;;7.90;91.10;;;;;;5058916;28;20033;-64
2024/03/06 12:18:43;;;;;;;3.65;2.60;;;7.80;91.10;;;;;;5058236;28;20037;-63
2024/03/06 12:21:11;;;;;;;2.80;2.50;;;7.80;91.50;;;;;;5062281;28;20063;-63
2024/03/06 12:23:36;;;;;;;3.20;2.90;;;7.80;91.20;;;;;;5056752;28;20041;-63
2024/03/06 12:26:08;;;;;;;3.42;3.13;;;7.80;91.20;;;;;;5055817;28;20466;-64
2024/03/06 12:28:35;;;;;;;2.53;2.33;;;7.80;91.30;;;;;;5058015;28;20041;-63
2024/03/06 12:31:03;;;;;;;2.72;2.53;;;7.80;91.30;;;;;;5063646;28;20039;-63
2024/03/06 12:33:28;;;;;;;3.33;3.03;;;7.80;91.20;;;;;;5063081;28;20033;-62
2024/03/06 12:36:10;;;;;;;3.00;2.70;;;7.80;91.10;;;;;;5067366;28;20036;-63
2024/03/06 12:38:36;;;;;;;3.45;2.70;;;7.80;91.20;;;;;;5060736;28;20060;-64
2024/03/06 12:41:02;;;;;;;3.17;2.88;;;7.80;91.10;;;;;;5060680;28;20124;-63
2024/03/06 12:43:28;;;;;;;5.90;5.30;;;7.80;91.10;;;;;;5064094;28;20049;-62
2024/03/06 12:45:56;;;;;;;3.70;3.00;;;7.80;91.10;;;;;;5063246;28;20044;-61
2024/03/06 12:48:22;;;;;;;4.00;3.60;;;7.80;91.10;;;;;;5063008;28;20539;-62
2024/03/06 12:50:51;;;;;;;3.22;2.92;;;7.80;91.10;;;;;;5060592;28;20043;-63
2024/03/06 12:53:21;;;;;;;4.90;3.60;;;7.90;91.20;;;;;;5055753;28;20037;-64